Time;durP1;ratioP1;P1;durP2;ratioP2;P2;SDS_P1;SDS_P2;PMS_P1;PMS_P2;Temp;Humidity;BMP_temperature;BMP_pressure;BME280_temperature;BME280_humidity;BME280_pressure;Samples;Min_cycle;Max_cycle;Signal;HPM_P1;HPM_P2
2023/06/20 00:00:07;;;;;;;12.98;6.60;;;;;;;19.38;72.37;101123.31;1032072;28;20042;-56
2023/06/20 00:00:39;;;;;;;7.75;5.93;;;;;;;19.39;72.80;101124.91;1032030;28;20137;-57
2023/06/20 00:01:11;;;;;;;8.10;5.63;;;;;;;19.38;72.14;101123.31;1031815;28;20038;-56
2023/06/20 00:01:43;;;;;;;6.35;4.78;;;;;;;19.32;71.78;101124.38;1031731;28;20165;-56
2023/06/20 00:02:14;;;;;;;10.55;5.72;;;;;;;19.34;72.13;101121.41;1032010;28;20048;-55
2023/06/20 00:02:46;;;;;;;8.60;6.43;;;;;;;19.37;71.76;101124.38;1031787;28;20053;-55
2023/06/20 00:03:18;;;;;;;10.90;6.13;;;;;;;19.40;71.85;101114.94;1031683;28;20050;-56
2023/06/20 00:03:50;;;;;;;7.25;5.53;;;;;;;19.38;71.27;101123.31;1031854;28;20051;-56
2023/06/20 00:04:21;;;;;;;11.63;5.35;;;;;;;19.36;71.31;101114.66;1031907;28;20042;-56
2023/06/20 00:04:53;;;;;;;13.07;5.47;;;;;;;19.43;71.12;101119.78;1031796;28;20042;-55
2023/06/20 00:05:25;;;;;;;6.75;5.28;;;;;;;19.37;71.78;101121.69;1031257;28;20038;-56
2023/06/20 00:05:57;;;;;;;6.38;5.45;;;;;;;19.34;71.97;101119.50;1031942;28;20054;-56
2023/06/20 00:06:28;;;;;;;7.75;5.80;;;;;;;19.33;71.92;101120.59;1031848;28;20130;-56
2023/06/20 00:07:00;;;;;;;11.18;5.65;;;;;;;19.33;71.89;101117.09;1031651;28;20039;-57
2023/06/20 00:07:32;;;;;;;8.63;5.38;;;;;;;19.37;71.56;101115.47;1031954;28;20050;-56
2023/06/20 00:08:05;;;;;;;9.75;6.30;;;;;;;19.40;71.08;101120.34;1031838;28;20042;-56
2023/06/20 00:08:37;;;;;;;8.80;6.13;;;;;;;19.41;71.26;101121.94;1031530;28;20060;-56
2023/06/20 00:09:08;;;;;;;8.77;5.75;;;;;;;19.42;71.31;101129.78;1032031;28;20490;-56
2023/06/20 00:09:40;;;;;;;11.35;5.70;;;;;;;19.42;71.23;101118.16;1031629;28;20046;-56
2023/06/20 00:10:12;;;;;;;8.70;5.85;;;;;;;19.41;71.14;101120.06;1031489;28;20247;-56
2023/06/20 00:10:43;;;;;;;9.52;5.80;;;;;;;19.41;71.27;101121.94;1031971;28;20061;-55
2023/06/20 00:11:15;;;;;;;7.18;5.82;;;;;;;19.42;71.00;101123.56;1031489;28;20046;-56
2023/06/20 00:11:46;;;;;;;7.03;6.05;;;;;;;19.41;71.46;101122.75;1031793;28;20048;-56
2023/06/20 00:12:19;;;;;;;7.40;5.90;;;;;;;19.40;71.06;101118.44;1031560;28;20050;-56
2023/06/20 00:12:51;;;;;;;12.38;6.13;;;;;;;19.40;71.39;101126.53;1031754;28;20066;-56
2023/06/20 00:13:23;;;;;;;7.72;6.38;;;;;;;19.40;71.31;101125.72;1031604;28;20424;-55
2023/06/20 00:13:55;;;;;;;7.88;6.68;;;;;;;19.42;70.40;101118.97;1031241;28;20050;-56
2023/06/20 00:14:30;;;;;;;7.13;5.88;;;;;;;19.49;70.72;101120.63;1031362;28;20042;-56
2023/06/20 00:15:01;;;;;;;8.63;6.47;;;;;;;19.47;70.89;101120.09;1031229;28;20546;-55
2023/06/20 00:15:33;;;;;;;6.35;5.68;;;;;;;19.47;71.02;101117.38;1031300;28;20042;-56
2023/06/20 00:16:04;;;;;;;6.60;5.55;;;;;;;19.42;70.84;101116.28;1031912;28;20356;-56
2023/06/20 00:16:37;;;;;;;8.20;5.78;;;;;;;19.44;70.69;101122.22;1031773;28;20042;-57
2023/06/20 00:17:09;;;;;;;13.85;7.47;;;;;;;19.49;71.03;101124.16;1031730;28;20488;-55
2023/06/20 00:17:41;;;;;;;9.68;6.20;;;;;;;19.50;71.31;101127.66;1031693;28;20042;-56
2023/06/20 00:18:12;;;;;;;6.35;5.70;;;;;;;19.43;71.81;101123.31;1031871;28;20042;-56
2023/06/20 00:18:45;;;;;;;10.77;6.65;;;;;;;19.44;71.31;101119.53;1031054;28;20057;-56
2023/06/20 00:19:17;;;;;;;10.40;5.97;;;;;;;19.45;71.13;101123.88;1031638;28;20057;-56
2023/06/20 00:19:49;;;;;;;9.38;6.65;;;;;;;19.45;71.24;101126.56;1031809;28;20042;-56
2023/06/20 00:20:20;;;;;;;6.05;5.45;;;;;;;19.42;71.51;101124.38;1031628;28;20039;-57
2023/06/20 00:20:55;;;;;;;6.07;5.47;;;;;;;19.40;71.12;101114.94;1031698;28;20050;-55
2023/06/20 00:21:26;;;;;;;12.55;6.30;;;;;;;19.42;71.35;101124.38;1031930;28;20176;-56
2023/06/20 00:21:58;;;;;;;7.45;6.63;;;;;;;19.44;71.70;101121.41;1031923;28;20042;-56
2023/06/20 00:22:34;;;;;;;12.68;6.75;;;;;;;19.39;72.37;101124.13;1031519;28;20047;-55
2023/06/20 00:23:06;;;;;;;8.23;7.05;;;;;;;19.32;72.46;101129.78;1031527;28;20097;-56
2023/06/20 00:23:38;;;;;;;6.88;5.65;;;;;;;19.35;71.94;101128.44;1031994;28;20045;-56
2023/06/20 00:24:09;;;;;;;9.68;7.18;;;;;;;19.34;71.97;101122.22;1031449;28;20056;-57
2023/06/20 00:24:41;;;;;;;9.60;6.25;;;;;;;19.35;72.20;101123.03;1031681;28;20057;-57
2023/06/20 00:25:13;;;;;;;7.45;5.63;;;;;;;19.37;71.48;101116.28;1031802;28;20496;-56
2023/06/20 00:25:45;;;;;;;7.88;6.95;;;;;;;19.38;71.57;101117.09;1029473;28;20047;-56
2023/06/20 00:26:16;;;;;;;7.20;5.90;;;;;;;19.35;71.76;101114.94;1031672;28;20038;-56
2023/06/20 00:26:48;;;;;;;7.43;6.63;;;;;;;19.34;71.44;101122.22;1031374;28;20042;-56
2023/06/20 00:27:20;;;;;;;9.00;6.78;;;;;;;19.36;71.44;101122.75;1031402;28;20084;-56
2023/06/20 00:27:51;;;;;;;7.55;6.45;;;;;;;19.40;71.22;101123.84;1031409;28;20086;-56
2023/06/20 00:28:23;;;;;;;7.65;6.50;;;;;;;19.35;71.45;101121.13;1027376;28;20053;-56
2023/06/20 00:28:55;;;;;;;6.68;5.63;;;;;;;19.36;71.70;101128.16;1031644;28;20042;-55
2023/06/20 00:29:26;;;;;;;14.85;5.85;;;;;;;19.34;71.92;101119.50;1027320;28;20114;-55
2023/06/20 00:29:58;;;;;;;9.52;7.45;;;;;;;19.33;71.44;101114.38;1027588;28;20577;-55
2023/06/20 00:30:30;;;;;;;7.93;5.85;;;;;;;19.33;71.70;101117.91;1031540;28;20050;-56
2023/06/20 00:31:02;;;;;;;10.45;6.35;;;;;;;19.36;71.44;101120.06;1027731;28;20042;-56
2023/06/20 00:31:33;;;;;;;6.85;5.72;;;;;;;19.33;71.60;101115.19;1031075;28;20046;-56
2023/06/20 00:32:05;;;;;;;9.13;5.93;;;;;;;19.32;71.47;101121.69;1031609;28;20046;-56
2023/06/20 00:32:37;;;;;;;9.30;7.03;;;;;;;19.34;71.27;101110.59;1031304;28;20050;-56
2023/06/20 00:33:08;;;;;;;12.27;6.22;;;;;;;19.39;71.19;101114.13;1031109;28;20034;-55
2023/06/20 00:33:40;;;;;;;6.30;5.57;;;;;;;19.35;72.16;101118.44;1031156;28;20540;-56
2023/06/20 00:34:12;;;;;;;8.13;6.13;;;;;;;19.35;72.07;101114.94;1027046;28;20426;-55
2023/06/20 00:34:44;;;;;;;7.57;5.63;;;;;;;19.35;71.42;101107.63;1027605;28;20354;-56
2023/06/20 00:35:15;;;;;;;7.88;5.80;;;;;;;19.35;71.69;101114.94;1031395;28;20046;-56
2023/06/20 00:35:47;;;;;;;8.18;6.38;;;;;;;19.37;72.02;101110.88;1031303;28;20431;-55
2023/06/20 00:36:25;;;;;;;6.88;5.88;;;;;;;19.34;71.86;101116.81;1031539;28;20054;-56
2023/06/20 00:36:57;;;;;;;7.35;6.07;;;;;;;19.34;71.95;101111.41;1031214;28;20042;-56
2023/06/20 00:37:29;;;;;;;7.50;6.18;;;;;;;19.30;72.00;101113.03;1031505;28;20070;-55
2023/06/20 00:38:01;;;;;;;11.40;5.78;;;;;;;19.30;71.53;101104.13;1034632;28;20463;-56
2023/06/20 00:38:32;;;;;;;7.80;6.25;;;;;;;19.33;71.61;101108.97;1031404;28;20038;-57
2023/06/20 00:39:04;;;;;;;6.95;5.95;;;;;;;19.31;71.73;101111.16;1035540;28;20042;-56
2023/06/20 00:39:35;;;;;;;8.90;6.00;;;;;;;19.30;71.41;101109.53;1035198;28;20053;-56
2023/06/20 00:40:08;;;;;;;9.70;6.45;;;;;;;19.32;71.51;101113.56;1027672;28;20038;-55
2023/06/20 00:40:39;;;;;;;8.00;5.97;;;;;;;19.34;71.62;101106.00;1031608;28;20053;-56
2023/06/20 00:41:11;;;;;;;7.85;6.18;;;;;;;19.32;71.77;101108.16;1029209;28;20536;-57
2023/06/20 00:41:44;;;;;;;6.60;5.55;;;;;;;19.34;71.64;101106.00;1031377;28;20424;-56
2023/06/20 00:42:20;;;;;;;8.77;6.55;;;;;;;19.34;71.59;101105.19;1031031;28;20042;-56
2023/06/20 00:42:52;;;;;;;7.63;6.25;;;;;;;19.32;71.75;101102.78;1030874;28;20054;-56
2023/06/20 00:43:24;;;;;;;6.85;5.57;;;;;;;19.33;71.15;101099.00;1031410;28;20059;-56
2023/06/20 00:43:55;;;;;;;6.28;5.68;;;;;;;19.33;71.48;101101.69;1027298;28;20054;-55
2023/06/20 00:44:27;;;;;;;9.25;6.65;;;;;;;19.35;71.66;101104.13;1023058;28;20093;-56
2023/06/20 00:44:59;;;;;;;7.57;6.28;;;;;;;19.32;72.04;101102.78;1023707;28;20497;-56
2023/06/20 00:45:34;;;;;;;14.25;7.32;;;;;;;19.34;71.80;101100.59;1027559;28;20050;-56
2023/06/20 00:46:06;;;;;;;8.20;6.10;;;;;;;19.36;71.61;101103.84;1031282;28;20046;-57
2023/06/20 00:46:40;;;;;;;7.10;6.15;;;;;;;19.33;71.59;101101.69;1031227;28;20440;-56
2023/06/20 00:47:15;;;;;;;7.68;6.22;;;;;;;19.33;71.60;101101.69;1031397;28;20527;-56
2023/06/20 00:47:46;;;;;;;10.32;6.88;;;;;;;19.35;71.12;101096.81;1031445;28;20050;-56
2023/06/20 00:48:18;;;;;;;10.13;6.80;;;;;;;19.34;71.32;101106.00;1031235;28;20046;-55
2023/06/20 00:48:50;;;;;;;11.82;5.88;;;;;;;19.37;71.69;101101.97;1031073;28;20096;-56
2023/06/20 00:49:23;;;;;;;8.52;6.10;;;;;;;19.31;72.12;101101.16;1026506;28;20043;-56
2023/06/20 00:49:55;;;;;;;11.98;6.82;;;;;;;19.32;72.46;101108.16;1027257;28;20042;-56
2023/06/20 00:50:28;;;;;;;9.98;6.68;;;;;;;19.35;71.98;101106.81;1027201;28;20135;-55
2023/06/20 00:51:00;;;;;;;9.98;6.82;;;;;;;19.36;72.01;101111.97;1028103;28;20113;-56
2023/06/20 00:51:32;;;;;;;9.50;6.75;;;;;;;19.35;72.46;101110.34;1027877;28;20134;-56
2023/06/20 00:52:04;;;;;;;9.45;6.10;;;;;;;19.33;72.26;101111.69;1031308;28;20086;-56
2023/06/20 00:52:36;;;;;;;11.18;6.63;;;;;;;19.33;72.12;101108.97;1027203;28;20555;-56
2023/06/20 00:53:09;;;;;;;10.43;6.15;;;;;;;19.32;71.48;101100.06;1027480;28;20045;-57
2023/06/20 00:53:42;;;;;;;8.23;6.15;;;;;;;19.34;71.16;101095.22;1031311;28;20393;-56
2023/06/20 00:54:14;;;;;;;6.32;5.22;;;;;;;19.34;71.29;101095.22;1031304;28;20054;-56
2023/06/20 00:54:47;;;;;;;11.75;6.55;;;;;;;19.34;71.43;101100.59;1031582;28;20046;-57
2023/06/20 00:55:19;;;;;;;9.52;6.25;;;;;;;19.37;71.16;101088.44;1031715;28;20050;-56
2023/06/20 00:55:50;;;;;;;10.05;6.53;;;;;;;19.37;70.99;101099.25;1027121;28;20438;-55
2023/06/20 00:56:24;;;;;;;9.27;6.63;;;;;;;19.37;71.43;101091.97;1022883;28;20577;-56
2023/06/20 00:56:55;;;;;;;8.75;6.68;;;;;;;19.36;71.49;101092.22;1023520;28;20571;-56
2023/06/20 00:57:28;;;;;;;9.48;6.05;;;;;;;19.27;71.62;101089.25;1024705;28;20390;-56
2023/06/20 00:58:01;;;;;;;9.15;6.25;;;;;;;19.25;71.36;101096.81;1027578;28;20186;-55
2023/06/20 00:58:33;;;;;;;8.48;6.82;;;;;;;19.25;71.74;101091.41;1027217;28;20674;-56
2023/06/20 00:59:05;;;;;;;8.07;6.80;;;;;;;19.27;71.94;101089.25;1027390;28;20457;-55
2023/06/20 00:59:37;;;;;;;8.18;6.03;;;;;;;19.30;71.95;101083.31;1026905;28;20057;-55
2023/06/20 01:00:12;;;;;;;7.07;6.22;;;;;;;19.33;71.61;101092.78;1027686;28;20050;-56
2023/06/20 01:00:43;;;;;;;10.70;6.43;;;;;;;19.34;71.85;101089.81;1027192;28;20042;-57
2023/06/20 01:01:21;;;;;;;8.10;6.30;;;;;;;19.33;71.71;101092.78;1028470;28;20117;-55
2023/06/20 01:01:53;;;;;;;7.93;5.72;;;;;;;19.34;71.46;101087.09;1027336;28;20132;-56
2023/06/20 01:02:25;;;;;;;9.73;6.60;;;;;;;19.36;71.69;101092.22;1028367;28;20046;-55
2023/06/20 01:03:01;;;;;;;10.02;6.40;;;;;;;19.36;71.93;101093.03;1031297;28;20046;-56
2023/06/20 01:03:37;;;;;;;9.10;6.05;;;;;;;19.37;71.68;101091.16;1024159;28;20054;-55
2023/06/20 01:04:09;;;;;;;7.95;6.43;;;;;;;19.32;71.96;101091.97;1027010;28;20054;-55
2023/06/20 01:04:43;;;;;;;9.48;5.70;;;;;;;19.32;71.53;101086.56;1027189;28;20042;-56
2023/06/20 01:05:15;;;;;;;7.70;6.88;;;;;;;19.34;71.60;101089.81;1028138;28;20046;-55
2023/06/20 01:06:32;;;;;;;7.78;6.78;;;;;;;19.29;71.97;101087.09;1028732;28;20035;-56
2023/06/20 01:07:12;;;;;;;6.95;6.00;;;;;;;19.25;71.45;101091.41;1030703;28;20715;-54
2023/06/20 01:07:58;;;;;;;7.60;6.20;;;;;;;19.28;71.81;101080.09;1026710;28;20077;-55
2023/06/20 01:08:54;;;;;;;7.68;5.78;;;;;;;19.30;71.53;101082.50;1022980;28;20116;-56
2023/06/20 01:09:33;;;;;;;8.93;6.20;;;;;;;19.25;71.62;101080.63;1036731;28;20586;-56
2023/06/20 01:10:13;;;;;;;8.55;6.63;;;;;;;19.24;71.81;101084.41;1035310;28;20046;-56
2023/06/20 01:11:04;;;;;;;9.60;6.78;;;;;;;19.27;72.02;101083.06;1031290;28;20034;-57
2023/06/20 01:11:44;;;;;;;9.50;6.13;;;;;;;19.26;71.85;101082.25;1035201;28;20041;-56
2023/06/20 01:12:19;;;;;;;7.53;6.68;;;;;;;19.29;71.83;101076.28;1039285;28;20045;-55
2023/06/20 01:13:07;;;;;;;7.90;6.82;;;;;;;19.31;71.62;101084.94;1043210;28;20040;-57
2023/06/20 01:14:10;;;;;;;12.25;6.40;;;;;;;19.27;72.16;101083.88;1039279;28;20133;-56
2023/06/20 01:14:54;;;;;;;8.77;5.65;;;;;;;19.25;71.92;101077.91;1038185;28;20045;-56
2023/06/20 01:15:37;;;;;;;11.75;6.03;;;;;;;19.27;71.92;101078.47;1035277;28;20046;-55
2023/06/20 01:16:19;;;;;;;7.65;5.07;;;;;;;19.27;71.79;101073.06;1035453;28;20038;-56
2023/06/20 01:16:58;;;;;;;8.90;5.57;;;;;;;19.24;71.83;101072.78;1027075;28;20090;-57
2023/06/20 01:17:56;;;;;;;9.85;5.55;;;;;;;19.25;71.99;101075.22;1031010;28;20050;-55
2023/06/20 01:19:03;;;;;;;7.05;5.72;;;;;;;19.24;71.68;101076.28;1032808;28;20129;-56
2023/06/20 01:19:56;;;;;;;7.85;5.05;;;;;;;19.24;71.99;101078.19;1029801;28;20101;-57
2023/06/20 01:20:33;;;;;;;8.73;5.75;;;;;;;19.28;71.55;101074.69;1029309;28;20054;-56
2023/06/20 01:21:07;;;;;;;8.45;6.10;;;;;;;19.26;71.82;101076.84;1031521;28;20034;-56
2023/06/20 01:21:46;;;;;;;12.70;6.20;;;;;;;19.21;71.78;101071.44;1026741;28;20070;-56
2023/06/20 01:22:36;;;;;;;10.10;6.28;;;;;;;19.20;72.75;101077.91;1027230;28;20039;-56
2023/06/20 01:23:13;;;;;;;8.50;7.57;;;;;;;19.23;72.28;101077.38;1031051;28;20034;-56
2023/06/20 01:23:55;;;;;;;7.28;6.13;;;;;;;19.18;72.12;101074.69;1031597;28;20038;-57
2023/06/20 01:24:58;;;;;;;9.60;6.00;;;;;;;19.19;72.46;101079.00;1031181;28;20048;-56
2023/06/20 01:25:46;;;;;;;7.15;5.78;;;;;;;19.20;72.18;101072.50;1030947;28;20468;-56
2023/06/20 01:26:40;;;;;;;8.82;6.13;;;;;;;19.17;71.75;101081.13;1029686;28;20132;-56
2023/06/20 01:27:15;;;;;;;7.20;5.45;;;;;;;19.18;71.96;101085.47;1027019;28;20538;-56
2023/06/20 01:27:56;;;;;;;7.95;6.10;;;;;;;19.22;71.70;101081.16;1022947;28;20082;-56
2023/06/20 01:28:39;;;;;;;9.20;6.70;;;;;;;19.25;71.60;101077.09;1027246;28;20501;-55
2023/06/20 01:29:17;;;;;;;8.15;6.10;;;;;;;19.22;71.99;101070.34;1026632;28;20101;-56
2023/06/20 01:29:57;;;;;;;7.97;6.00;;;;;;;19.25;72.05;101072.50;1022816;28;20400;-56
2023/06/20 01:30:38;;;;;;;11.73;5.80;;;;;;;19.23;72.59;101080.06;1023126;28;20050;-55
2023/06/20 01:31:12;;;;;;;10.40;6.50;;;;;;;19.22;72.15;101073.06;1026791;28;20034;-56
2023/06/20 01:31:52;;;;;;;6.40;5.75;;;;;;;19.25;72.50;101080.63;1021900;28;20043;-56
2023/06/20 01:32:25;;;;;;;13.73;6.25;;;;;;;19.25;72.00;101069.81;1019223;29;20147;-57
2023/06/20 01:32:57;;;;;;;7.63;6.50;;;;;;;19.26;72.43;101076.84;1019329;29;20426;-56
2023/06/20 01:33:34;;;;;;;12.55;7.60;;;;;;;19.24;72.59;101073.59;1022715;28;20096;-55
2023/06/20 01:34:12;;;;;;;10.55;7.20;;;;;;;19.26;72.30;101071.44;1024732;28;20047;-56
2023/06/20 01:34:51;;;;;;;24.05;6.35;;;;;;;19.25;72.16;101074.41;1021277;28;20047;-57
2023/06/20 01:35:26;;;;;;;7.85;6.20;;;;;;;19.26;72.29;101071.44;1022917;28;20122;-56
2023/06/20 01:35:59;;;;;;;7.22;6.07;;;;;;;19.29;72.10;101073.59;1022094;28;20513;-56
2023/06/20 01:36:35;;;;;;;7.38;5.93;;;;;;;19.30;72.34;101077.91;1026912;28;20376;-56
2023/06/20 01:37:08;;;;;;;7.25;6.10;;;;;;;19.27;71.92;101067.66;1027263;28;20062;-56
2023/06/20 01:37:41;;;;;;;7.88;6.30;;;;;;;19.25;72.27;101075.22;1027116;28;20054;-57
2023/06/20 01:38:14;;;;;;;7.45;6.28;;;;;;;19.24;72.45;101070.91;1024541;28;20047;-55
2023/06/20 01:38:52;;;;;;;8.30;6.60;;;;;;;19.25;72.32;101069.81;1023185;28;20134;-56
2023/06/20 01:39:27;;;;;;;7.07;6.07;;;;;;;19.25;72.47;101077.91;1025045;28;20170;-56
2023/06/20 01:39:59;;;;;;;7.88;6.03;;;;;;;19.25;72.67;101071.72;1029130;28;20528;-56
2023/06/20 01:40:32;;;;;;;8.45;5.97;;;;;;;19.24;72.52;101067.38;1032993;28;20404;-56
2023/06/20 01:41:06;;;;;;;7.65;6.38;;;;;;;19.27;72.55;101067.66;1035131;28;20041;-56
2023/06/20 01:41:41;;;;;;;9.13;6.32;;;;;;;19.27;72.08;101073.06;1031093;28;20588;-56
2023/06/20 01:42:14;;;;;;;9.88;6.35;;;;;;;19.25;72.84;101074.41;1031287;28;20121;-55
2023/06/20 01:42:47;;;;;;;10.52;6.65;;;;;;;19.25;71.98;101069.81;1031174;28;20065;-56
2023/06/20 01:43:19;;;;;;;10.43;8.65;;;;;;;19.28;71.87;101063.06;1026838;28;20051;-55
2023/06/20 01:43:56;;;;;;;9.25;6.10;;;;;;;19.29;71.86;101073.59;1022880;28;20051;-56
2023/06/20 01:44:28;;;;;;;7.88;6.22;;;;;;;19.30;72.14;101067.13;1019278;29;20062;-56
2023/06/20 01:45:01;;;;;;;9.30;5.85;;;;;;;19.32;71.92;101064.94;1022031;28;20039;-56
2023/06/20 01:45:37;;;;;;;8.02;6.50;;;;;;;19.31;72.41;101068.72;1028066;28;20673;-57
2023/06/20 01:46:10;;;;;;;10.85;6.55;;;;;;;19.25;72.50;101064.41;1028761;28;20049;-56
2023/06/20 01:46:42;;;;;;;7.10;6.38;;;;;;;19.28;72.31;101063.88;1026812;28;20054;-56
2023/06/20 01:47:14;;;;;;;9.73;7.40;;;;;;;19.28;72.58;101069.28;1029651;28;20059;-56
2023/06/20 01:47:47;;;;;;;10.68;6.78;;;;;;;19.27;72.67;101064.94;1027898;28;20039;-56
2023/06/20 01:48:20;;;;;;;10.80;6.10;;;;;;;19.30;72.45;101061.72;1030910;28;20058;-55
2023/06/20 01:48:52;;;;;;;7.85;6.28;;;;;;;19.33;72.00;101060.38;1027854;28;20035;-56
2023/06/20 01:49:25;;;;;;;11.82;6.78;;;;;;;19.28;72.30;101068.47;1028467;28;20046;-54
2023/06/20 01:49:58;;;;;;;8.15;6.55;;;;;;;19.30;72.37;101056.31;1023744;29;20054;-56
2023/06/20 01:50:31;;;;;;;12.15;6.68;;;;;;;19.30;72.28;101053.59;1020711;28;20052;-55
2023/06/20 01:51:03;;;;;;;11.38;7.13;;;;;;;19.29;72.49;101062.78;1020817;28;20062;-56
2023/06/20 01:51:36;;;;;;;7.05;6.32;;;;;;;19.27;72.95;101066.84;1028296;28;20093;-56
2023/06/20 01:52:13;;;;;;;7.57;6.35;;;;;;;19.27;72.69;101066.84;1027629;28;20035;-57
2023/06/20 01:52:44;;;;;;;11.38;6.63;;;;;;;19.28;72.57;101058.47;1019812;29;20044;-56
2023/06/20 01:53:17;;;;;;;7.78;6.40;;;;;;;19.29;72.89;101061.97;1019657;29;20040;-55
2023/06/20 01:53:49;;;;;;;8.90;6.85;;;;;;;19.30;72.77;101056.31;1022502;28;20049;-57
2023/06/20 01:54:22;;;;;;;8.20;6.22;;;;;;;19.32;72.63;101064.94;1024447;28;20051;-57
2023/06/20 01:54:55;;;;;;;9.98;6.18;;;;;;;19.29;72.59;101062.78;1027651;28;20066;-56
2023/06/20 01:55:28;;;;;;;6.68;5.88;;;;;;;19.29;72.83;101054.69;1024605;28;20765;-56
2023/06/20 01:56:04;;;;;;;7.40;6.10;;;;;;;19.34;72.58;101057.38;1025193;28;20031;-56
2023/06/20 01:56:39;;;;;;;10.25;6.45;;;;;;;19.33;73.03;101057.66;1028052;28;20066;-56
2023/06/20 01:57:11;;;;;;;6.75;5.50;;;;;;;19.28;72.57;101063.06;1025153;28;20256;-55
2023/06/20 01:57:43;;;;;;;8.38;6.97;;;;;;;19.29;72.68;101060.09;1023830;28;20575;-56
2023/06/20 01:58:15;;;;;;;8.77;7.00;;;;;;;19.31;73.33;101066.03;1019990;29;20051;-56
2023/06/20 01:58:48;;;;;;;8.88;6.35;;;;;;;19.29;72.72;101060.09;1016775;29;20043;-56
2023/06/20 01:59:20;;;;;;;13.25;7.15;;;;;;;19.28;73.14;101063.88;1023238;29;20047;-54
2023/06/20 01:59:52;;;;;;;9.85;7.00;;;;;;;19.27;72.99;101064.94;1023985;28;20509;-56
2023/06/20 02:00:26;;;;;;;8.57;6.78;;;;;;;19.27;72.91;101064.94;1032574;28;20039;-57
2023/06/20 02:00:58;;;;;;;10.60;7.25;;;;;;;19.24;72.78;101062.78;1037042;28;20046;-55
2023/06/20 02:01:32;;;;;;;7.65;6.57;;;;;;;19.28;72.93;101063.88;1039828;28;20037;-56
2023/06/20 02:02:05;;;;;;;9.18;6.85;;;;;;;19.27;72.40;101062.25;1036077;28;20046;-56
2023/06/20 02:02:37;;;;;;;8.82;6.70;;;;;;;19.29;72.50;101053.88;1031949;28;20046;-57
2023/06/20 02:03:09;;;;;;;9.10;7.28;;;;;;;19.31;72.32;101063.34;1032141;28;20042;-56
2023/06/20 02:03:43;;;;;;;11.38;7.10;;;;;;;19.33;72.48;101071.16;1028410;28;20141;-56
2023/06/20 02:04:17;;;;;;;7.50;6.47;;;;;;;19.33;72.81;101052.25;1028592;28;20066;-56
2023/06/20 02:04:49;;;;;;;8.05;6.50;;;;;;;19.33;72.71;101061.16;1028070;28;20522;-55
2023/06/20 02:05:21;;;;;;;9.80;5.95;;;;;;;19.37;72.52;101058.75;1027981;28;20611;-56
2023/06/20 02:05:56;;;;;;;9.60;6.45;;;;;;;19.36;72.63;101055.22;1028809;28;20481;-56
2023/06/20 02:06:29;;;;;;;9.85;7.10;;;;;;;19.34;72.46;101053.88;1028934;28;20476;-56
2023/06/20 02:07:05;;;;;;;7.85;6.32;;;;;;;19.35;72.50;101060.91;1021106;28;20047;-56
2023/06/20 02:07:38;;;;;;;9.52;6.32;;;;;;;19.37;72.68;101067.66;1023828;28;20071;-56
2023/06/20 02:08:11;;;;;;;7.90;6.60;;;;;;;19.32;72.26;101059.56;1024936;28;20035;-56
2023/06/20 02:08:44;;;;;;;7.90;6.45;;;;;;;19.35;72.69;101064.41;1030696;28;20047;-57
2023/06/20 02:09:16;;;;;;;9.70;6.53;;;;;;;19.36;72.89;101063.34;1035100;28;20112;-56
2023/06/20 02:09:48;;;;;;;6.53;5.82;;;;;;;19.36;72.74;101060.63;1028947;28;20050;-54
2023/06/20 02:10:21;;;;;;;9.13;7.28;;;;;;;19.36;72.81;101060.63;1024862;28;20039;-56
2023/06/20 02:10:53;;;;;;;10.38;7.50;;;;;;;19.39;72.36;101054.69;1027748;28;20046;-56
2023/06/20 02:11:26;;;;;;;8.02;6.15;;;;;;;19.43;72.27;101055.75;1020873;29;20043;-57
2023/06/20 02:11:58;;;;;;;9.48;6.90;;;;;;;19.43;72.78;101058.47;1020619;28;20051;-55
2023/06/20 02:12:30;;;;;;;7.95;6.35;;;;;;;19.44;72.38;101062.78;1023804;28;20556;-56
2023/06/20 02:13:02;;;;;;;7.18;6.47;;;;;;;19.39;73.22;101065.50;1017396;29;20414;-56
2023/06/20 02:13:35;;;;;;;8.93;6.40;;;;;;;19.43;73.08;101066.56;1028725;28;20074;-56
2023/06/20 02:14:07;;;;;;;6.63;5.80;;;;;;;19.44;72.33;101062.78;1035923;28;20045;-55
2023/06/20 02:14:39;;;;;;;7.88;6.20;;;;;;;19.42;73.04;101067.66;1033124;28;20185;-55
2023/06/20 02:15:12;;;;;;;13.98;7.72;;;;;;;19.48;72.45;101067.69;1031238;28;20137;-56
2023/06/20 02:15:44;;;;;;;7.55;6.47;;;;;;;19.42;73.02;101062.25;1023581;29;20043;-57
2023/06/20 02:16:16;;;;;;;8.65;7.03;;;;;;;19.45;72.58;101064.44;1024334;28;20564;-55
2023/06/20 02:16:48;;;;;;;7.50;6.55;;;;;;;19.45;72.83;101064.44;1029406;28;20047;-57
2023/06/20 02:17:20;;;;;;;10.27;6.25;;;;;;;19.46;72.61;101065.25;1028789;28;20043;-57
2023/06/20 02:17:53;;;;;;;9.38;6.97;;;;;;;19.47;73.04;101066.06;1027882;28;20043;-57
2023/06/20 02:18:24;;;;;;;8.63;6.68;;;;;;;19.40;72.78;101067.09;1027960;28;20047;-56
2023/06/20 02:18:56;;;;;;;10.10;6.88;;;;;;;19.43;73.01;101066.56;1026405;28;20046;-56
2023/06/20 02:19:28;;;;;;;10.02;6.55;;;;;;;19.45;72.71;101064.44;1031763;28;20054;-56
2023/06/20 02:20:01;;;;;;;10.52;6.68;;;;;;;19.44;73.07;101067.38;1031911;28;20046;-55
2023/06/20 02:20:33;;;;;;;8.80;7.00;;;;;;;19.43;73.18;101063.88;1032073;28;20054;-56
2023/06/20 02:21:08;;;;;;;10.77;7.05;;;;;;;19.42;73.10;101064.13;1031808;28;20124;-56
2023/06/20 02:21:42;;;;;;;11.57;6.57;;;;;;;19.43;73.33;101063.88;1031895;28;20053;-56
2023/06/20 02:22:15;;;;;;;7.03;6.32;;;;;;;19.42;73.49;101061.44;1031830;28;20042;-54
2023/06/20 02:22:47;;;;;;;9.32;6.40;;;;;;;19.43;73.45;101066.56;1027829;28;20537;-56
2023/06/20 02:23:28;;;;;;;9.85;5.90;;;;;;;19.44;73.14;101060.09;1023960;28;20399;-56
2023/06/20 02:24:01;;;;;;;7.88;6.03;;;;;;;19.49;73.08;101063.91;1026085;28;20517;-57
2023/06/20 02:24:34;;;;;;;8.68;7.00;;;;;;;19.50;73.12;101065.50;1031506;28;20049;-56
2023/06/20 02:25:09;;;;;;;8.40;6.50;;;;;;;19.51;72.95;101061.72;1027989;28;20114;-56
2023/06/20 02:25:43;;;;;;;7.20;5.72;;;;;;;19.49;72.85;101063.91;1023720;28;20470;-56
2023/06/20 02:26:17;;;;;;;6.93;6.20;;;;;;;19.49;72.71;101063.91;1019935;29;20050;-56
2023/06/20 02:26:49;;;;;;;7.63;6.85;;;;;;;19.50;72.56;101060.13;1023106;28;20189;-56
2023/06/20 02:27:22;;;;;;;7.18;6.47;;;;;;;19.43;73.38;101066.56;1020701;28;20152;-56
2023/06/20 02:27:55;;;;;;;7.78;6.55;;;;;;;19.41;73.07;101060.63;1024931;28;20256;-55
2023/06/20 02:28:28;;;;;;;8.48;6.90;;;;;;;19.42;72.99;101054.13;1023511;28;20059;-55
2023/06/20 02:29:02;;;;;;;8.25;6.15;;;;;;;19.39;73.11;101060.09;1025755;28;20054;-55
2023/06/20 02:29:37;;;;;;;8.63;7.47;;;;;;;19.43;72.83;101054.94;1027565;28;20059;-56
2023/06/20 02:30:10;;;;;;;10.40;6.40;;;;;;;19.44;72.90;101054.69;1027745;28;20043;-56
2023/06/20 02:30:42;;;;;;;8.73;7.82;;;;;;;19.44;72.84;101065.50;1029259;28;20097;-57
2023/06/20 02:31:19;;;;;;;6.82;6.10;;;;;;;19.44;73.05;101056.56;1033385;28;20504;-56
2023/06/20 02:31:51;;;;;;;7.82;6.82;;;;;;;19.43;73.39;101061.16;1027774;28;20047;-56
2023/06/20 02:32:23;;;;;;;8.88;6.57;;;;;;;19.45;73.54;101058.22;1025196;28;20066;-56
2023/06/20 02:32:57;;;;;;;7.30;6.25;;;;;;;19.41;73.39;101057.94;1027703;28;20042;-55
2023/06/20 02:33:32;;;;;;;8.98;5.57;;;;;;;19.38;73.45;101058.47;1025163;28;20055;-57
2023/06/20 02:34:07;;;;;;;11.75;7.28;;;;;;;19.39;73.56;101059.28;1021343;29;20046;-55
2023/06/20 02:34:41;;;;;;;9.20;7.78;;;;;;;19.40;73.42;101056.31;1023989;29;20485;-53
2023/06/20 02:35:13;;;;;;;11.40;7.18;;;;;;;19.41;73.22;101057.94;1024940;28;20525;-55
2023/06/20 02:35:47;;;;;;;8.77;7.30;;;;;;;19.38;72.96;101063.06;1028099;28;20489;-56
2023/06/20 02:36:20;;;;;;;8.80;6.72;;;;;;;19.38;73.50;101058.47;1036040;28;20045;-56
2023/06/20 02:36:55;;;;;;;12.40;7.72;;;;;;;19.39;73.16;101053.88;1027830;28;20042;-56
2023/06/20 02:37:29;;;;;;;9.10;7.00;;;;;;;19.41;73.26;101060.63;1025144;28;20063;-56
2023/06/20 02:38:02;;;;;;;7.78;6.70;;;;;;;19.41;73.27;101057.94;1023555;28;20533;-57
2023/06/20 02:38:33;;;;;;;9.32;7.70;;;;;;;19.37;73.97;101056.84;1015871;29;20139;-56
2023/06/20 02:39:05;;;;;;;7.05;6.15;;;;;;;19.42;73.82;101054.13;1023770;28;20512;-56
2023/06/20 02:39:37;;;;;;;8.95;6.57;;;;;;;19.44;73.54;101056.56;1028187;28;20130;-55